Time;durP1;ratioP1;P1;durP2;ratioP2;P2;SDS_P1;SDS_P2;PMS_P1;PMS_P2;Temp;Humidity;BMP_temperature;BMP_pressure;BME280_temperature;BME280_humidity;BME280_pressure;Samples;Min_cycle;Max_cycle;Signal;HPM_P1;HPM_P2
2022/05/16 00:00:24;;;;;;;7.20;4.80;;;;;;;;;;5053504;28;20390;-59
2022/05/16 00:02:50;;;;;;;9.80;4.80;;;;;;;;;;5052872;28;20456;-59
2022/05/16 00:05:16;;;;;;;7.13;4.87;;;;;;;;;;5053447;28;20498;-59
2022/05/16 00:07:42;;;;;;;5.83;4.60;;;;;;;;;;5053447;28;20377;-59
2022/05/16 00:10:09;;;;;;;6.00;4.63;;;;;;;;;;5053725;28;20407;-57
2022/05/16 00:12:35;;;;;;;7.70;4.60;;;;;;;;;;5052803;28;20407;-55
2022/05/16 00:15:01;;;;;;;9.33;4.50;;;;;;;;;;5053269;28;20514;-56
2022/05/16 00:17:27;;;;;;;6.10;5.17;;;;;;;;;;5053300;28;20416;-56
2022/05/16 00:19:53;;;;;;;5.43;4.47;;;;;;;;;;5053120;28;20389;-56
2022/05/16 00:22:19;;;;;;;7.90;5.30;;;;;;;;;;5052386;28;20432;-58
2022/05/16 00:24:45;;;;;;;8.10;4.60;;;;;;;;;;5052963;28;20443;-57
2022/05/16 00:27:12;;;;;;;7.33;4.83;;;;;;;;;;5053102;28;20418;-56
2022/05/16 00:29:39;;;;;;;7.27;5.50;;;;;;;;;;5052963;28;20380;-57
2022/05/16 00:32:06;;;;;;;5.23;4.73;;;;;;;;;;5052413;28;20879;-59
2022/05/16 00:34:32;;;;;;;13.20;4.40;;;;;;;;;;5068096;28;20426;-56
2022/05/16 00:36:58;;;;;;;10.70;4.93;;;;;;;;;;5052796;28;20372;-56
2022/05/16 00:39:24;;;;;;;5.17;4.20;;;;;;;;;;5052919;28;20422;-58
2022/05/16 00:41:51;;;;;;;6.50;4.43;;;;;;;;;;5052118;28;20448;-57
2022/05/16 00:44:17;;;;;;;7.77;4.13;;;;;;;;;;5052676;28;20880;-55
2022/05/16 00:46:43;;;;;;;4.73;4.33;;;;;;;;;;5052581;28;20402;-57
2022/05/16 00:49:11;;;;;;;6.40;5.00;;;;;;;;;;5052597;28;20420;-57
2022/05/16 00:51:53;;;;;;;5.63;4.47;;;;;;;;;;5051208;28;20381;-56
2022/05/16 00:54:21;;;;;;;6.07;4.90;;;;;;;;;;5052523;28;20396;-57
2022/05/16 00:56:50;;;;;;;6.40;4.50;;;;;;;;;;5052456;28;20876;-57
2022/05/16 00:59:17;;;;;;;7.00;4.43;;;;;;;;;;5052418;28;20404;-57
2022/05/16 01:07:12;;;;;;;6.30;4.97;;;;;;;;;;5051936;28;20401;-59
2022/05/16 01:09:38;;;;;;;5.40;4.50;;;;;;;;;;5051755;28;20398;-57
2022/05/16 01:12:04;;;;;;;9.20;5.13;;;;;;;;;;5051570;28;20557;-57
2022/05/16 01:14:39;;;;;;;7.27;4.83;;;;;;;;;;5052003;28;20771;-57
2022/05/16 01:17:06;;;;;;;7.17;5.00;;;;;;;;;;5052196;28;20825;-56
2022/05/16 01:19:32;;;;;;;8.70;5.07;;;;;;;;;;5052077;28;20416;-57
2022/05/16 01:21:59;;;;;;;10.00;5.00;;;;;;;;;;5051471;28;20922;-55
2022/05/16 01:24:26;;;;;;;9.90;5.17;;;;;;;;;;5052006;28;20397;-56
2022/05/16 01:26:52;;;;;;;7.70;5.33;;;;;;;;;;5052099;28;20891;-55
2022/05/16 01:29:20;;;;;;;9.43;5.90;;;;;;;;;;5051853;28;20453;-55
2022/05/16 01:31:46;;;;;;;8.10;6.43;;;;;;;;;;5051269;28;20511;-57
2022/05/16 01:34:12;;;;;;;7.50;6.03;;;;;;;;;;5051911;28;20931;-57
2022/05/16 01:36:39;;;;;;;14.43;7.10;;;;;;;;;;5051612;28;20497;-58
2022/05/16 01:39:05;;;;;;;10.07;5.40;;;;;;;;;;5051833;28;20434;-56
2022/05/16 01:41:31;;;;;;;8.90;5.60;;;;;;;;;;5051109;28;20391;-57
2022/05/16 01:43:58;;;;;;;8.53;6.03;;;;;;;;;;5051781;28;20493;-57
2022/05/16 01:46:29;;;;;;;9.23;4.87;;;;;;;;;;5051750;28;20405;-59
2022/05/16 01:48:55;;;;;;;7.83;5.43;;;;;;;;;;5051626;28;20364;-56
2022/05/16 01:51:21;;;;;;;8.53;5.87;;;;;;;;;;5051089;28;20729;-58
2022/05/16 01:53:48;;;;;;;7.17;4.87;;;;;;;;;;5051918;28;20778;-56
2022/05/16 01:56:14;;;;;;;7.67;4.27;;;;;;;;;;5051653;28;20397;-57
2022/05/16 01:58:44;;;;;;;10.23;4.60;;;;;;;;;;5051665;28;20373;-57
2022/05/16 02:01:10;;;;;;;5.93;5.13;;;;;;;;;;5051033;28;20832;-58
2022/05/16 02:03:39;;;;;;;5.17;4.67;;;;;;;;;;5054154;28;20458;-58
2022/05/16 02:06:05;;;;;;;8.63;5.10;;;;;;;;;;5055725;28;20472;-59
2022/05/16 02:08:32;;;;;;;5.87;5.20;;;;;;;;;;5055645;28;20949;-56
2022/05/16 02:10:58;;;;;;;6.87;4.30;;;;;;;;;;5055004;28;20807;-56
2022/05/16 02:13:24;;;;;;;5.77;4.60;;;;;;;;;;5055531;28;20413;-56
2022/05/16 02:15:50;;;;;;;6.77;5.30;;;;;;;;;;5055514;28;20409;-56
2022/05/16 02:18:17;;;;;;;5.83;5.23;;;;;;;;;;5055377;28;20572;-61
2022/05/16 02:20:43;;;;;;;5.93;5.27;;;;;;;;;;5055238;28;20412;-57
2022/05/16 02:25:54;;;;;;;7.90;5.67;;;;;;;;;;5055673;28;20904;-57
2022/05/16 02:28:21;;;;;;;8.63;5.00;;;;;;;;;;5055242;28;20452;-56
2022/05/16 02:30:48;;;;;;;9.57;6.27;;;;;;;;;;5054568;28;20462;-56
2022/05/16 02:33:15;;;;;;;7.30;5.67;;;;;;;;;;5055096;28;20747;-56
2022/05/16 02:35:42;;;;;;;8.53;5.83;;;;;;;;;;5055201;28;20464;-56
2022/05/16 02:38:09;;;;;;;8.10;5.70;;;;;;;;;;5055078;28;20384;-56
2022/05/16 02:40:36;;;;;;;6.67;5.90;;;;;;;;;;5055122;28;20442;-57
2022/05/16 02:43:02;;;;;;;10.43;5.53;;;;;;;;;;5054373;28;20429;-55
2022/05/16 02:45:28;;;;;;;7.10;5.43;;;;;;;;;;5054948;28;20424;-56
2022/05/16 02:47:55;;;;;;;6.87;6.17;;;;;;;;;;5054957;28;20534;-56
2022/05/16 02:50:23;;;;;;;5.90;4.90;;;;;;;;;;5054695;28;20466;-58
2022/05/16 02:52:49;;;;;;;8.30;6.30;;;;;;;;;;5054229;28;20490;-55
2022/05/16 02:55:15;;;;;;;8.80;5.53;;;;;;;;;;5054904;28;20437;-56
2022/05/16 02:57:41;;;;;;;8.13;5.70;;;;;;;;;;5054755;28;20416;-57
2022/05/16 03:00:09;;;;;;;6.60;5.20;;;;;;;;;;5054713;28;20412;-55
2022/05/16 03:02:35;;;;;;;10.10;5.40;;;;;;;;;;5054004;28;20431;-57
2022/05/16 03:05:01;;;;;;;9.20;5.83;;;;;;;;;;5054530;28;20893;-55
2022/05/16 03:07:27;;;;;;;7.10;5.23;;;;;;;;;;5054578;28;20429;-56
2022/05/16 03:09:53;;;;;;;8.93;5.50;;;;;;;;;;5054499;28;20402;-57
2022/05/16 03:12:19;;;;;;;11.50;5.13;;;;;;;;;;5053926;28;20401;-56
2022/05/16 03:14:45;;;;;;;11.47;5.47;;;;;;;;;;5053884;28;20854;-59
2022/05/16 03:17:11;;;;;;;7.97;5.60;;;;;;;;;;5054462;28;20408;-56
2022/05/16 03:19:37;;;;;;;8.00;5.60;;;;;;;;;;5054249;28;20437;-57
2022/05/16 03:22:04;;;;;;;6.80;5.23;;;;;;;;;;5053594;28;20435;-56
2022/05/16 03:24:30;;;;;;;8.17;5.40;;;;;;;;;;5054369;28;20516;-57
2022/05/16 03:26:56;;;;;;;6.13;5.23;;;;;;;;;;5054151;28;20487;-57
2022/05/16 03:29:22;;;;;;;6.43;5.00;;;;;;;;;;5054035;28;20376;-59
2022/05/16 03:31:48;;;;;;;6.90;6.30;;;;;;;;;;5068889;28;20414;-56
2022/05/16 03:34:14;;;;;;;7.53;5.30;;;;;;;;;;5052390;28;20467;-55
2022/05/16 03:36:40;;;;;;;8.77;5.70;;;;;;;;;;5053993;28;20811;-57
2022/05/16 03:41:51;;;;;;;6.70;5.80;;;;;;;;;;5053468;28;20480;-59
2022/05/16 03:44:18;;;;;;;12.07;6.50;;;;;;;;;;5053776;28;20399;-56
2022/05/16 03:46:44;;;;;;;6.63;5.83;;;;;;;;;;5053809;28;20889;-57
2022/05/16 03:49:10;;;;;;;7.70;6.40;;;;;;;;;;5053977;28;20368;-57
2022/05/16 03:51:37;;;;;;;6.80;6.07;;;;;;;;;;5053314;28;20391;-57
2022/05/16 03:54:03;;;;;;;10.30;6.20;;;;;;;;;;5053703;28;20391;-56
2022/05/16 03:56:29;;;;;;;6.17;5.57;;;;;;;;;;5053738;28;20376;-56
2022/05/16 03:58:56;;;;;;;8.07;5.70;;;;;;;;;;5053560;28;20741;-57
2022/05/16 04:01:22;;;;;;;11.67;6.57;;;;;;;;;;5052982;28;20491;-57
2022/05/16 04:03:48;;;;;;;9.27;5.97;;;;;;;;;;5053373;28;20449;-56
2022/05/16 04:06:14;;;;;;;11.40;7.60;;;;;;;;;;5053488;28;20398;-55
2022/05/16 04:08:42;;;;;;;9.77;5.70;;;;;;;;;;5053434;28;20375;-56
2022/05/16 04:11:08;;;;;;;6.33;5.67;;;;;;;;;;5052685;28;20377;-56
2022/05/16 04:13:34;;;;;;;6.63;6.00;;;;;;;;;;5053273;28;20486;-56
2022/05/16 04:16:00;;;;;;;6.23;5.63;;;;;;;;;;5053255;28;20464;-57
2022/05/16 04:18:26;;;;;;;7.43;5.60;;;;;;;;;;5053092;28;20413;-57
2022/05/16 04:20:52;;;;;;;10.60;6.33;;;;;;;;;;5052581;28;20897;-56
2022/05/16 04:23:18;;;;;;;6.33;5.60;;;;;;;;;;5053006;28;20492;-56
2022/05/16 04:25:44;;;;;;;13.80;6.13;;;;;;;;;;5052306;28;20872;-55
2022/05/16 04:28:11;;;;;;;7.47;6.13;;;;;;;;;;5053049;28;20376;-56
2022/05/16 04:30:38;;;;;;;6.50;5.90;;;;;;;;;;5052921;28;20377;-56
2022/05/16 04:33:04;;;;;;;8.93;6.10;;;;;;;;;;5051338;28;20410;-56
2022/05/16 04:35:30;;;;;;;8.23;6.30;;;;;;;;;;5052951;28;20409;-56
2022/05/16 04:37:57;;;;;;;8.33;6.33;;;;;;;;;;5052904;28;20742;-56
2022/05/16 04:40:22;;;;;;;8.13;5.57;;;;;;;;;;5052812;28;20383;-56
2022/05/16 04:42:48;;;;;;;8.70;5.70;;;;;;;;;;5051950;28;20449;-56
2022/05/16 04:45:14;;;;;;;8.80;5.70;;;;;;;;;;5052654;28;20950;-57
2022/05/16 04:47:40;;;;;;;8.20;5.73;;;;;;;;;;5052635;28;20501;-55
2022/05/16 04:50:07;;;;;;;7.60;5.53;;;;;;;;;;5052532;28;20405;-57
2022/05/16 04:52:33;;;;;;;10.23;5.60;;;;;;;;;;5051904;28;20482;-55
2022/05/16 04:55:00;;;;;;;10.70;5.53;;;;;;;;;;5052491;28;20436;-56
2022/05/16 04:57:26;;;;;;;8.20;6.33;;;;;;;;;;5052372;28;20382;-55
2022/05/16 04:59:52;;;;;;;8.20;5.87;;;;;;;;;;5052371;28;20384;-55
2022/05/16 05:02:18;;;;;;;6.10;5.50;;;;;;;;;;5051737;28;20489;-57
2022/05/16 05:04:45;;;;;;;6.60;5.60;;;;;;;;;;5052381;28;20843;-56
2022/05/16 05:07:11;;;;;;;12.17;5.30;;;;;;;;;;5052482;28;20379;-56
2022/05/16 05:14:32;;;;;;;9.30;5.50;;;;;;;;;;5052304;28;20414;-55
2022/05/16 05:15:08;;;;;;;10.10;5.33;;;;;;;;;;5052256;28;20505;-58
2022/05/16 05:17:34;;;;;;;9.13;4.90;;;;;;;;;;5052108;28;20398;-56
2022/05/16 05:20:00;;;;;;;11.10;6.20;;;;;;;;;;5052081;28;20411;-57
2022/05/16 05:22:26;;;;;;;7.87;5.70;;;;;;;;;;5051374;28;20457;-56
2022/05/16 05:24:52;;;;;;;9.20;5.20;;;;;;;;;;5052021;28;20423;-59
2022/05/16 05:27:18;;;;;;;10.20;6.20;;;;;;;;;;5052220;28;20431;-60
2022/05/16 05:29:44;;;;;;;11.27;7.20;;;;;;;;;;5051987;28;20873;-56
2022/05/16 05:32:11;;;;;;;9.73;6.53;;;;;;;;;;5051313;28;20385;-56
2022/05/16 05:34:39;;;;;;;13.90;7.23;;;;;;;;;;5051606;28;20434;-57
2022/05/16 05:37:05;;;;;;;8.53;6.03;;;;;;;;;;5068757;28;20424;-58
2022/05/16 05:39:32;;;;;;;10.07;8.33;;;;;;;;;;5070833;28;20435;-59
2022/05/16 05:42:01;;;;;;;11.77;7.37;;;;;;;;;;5070447;28;20442;-60
2022/05/16 05:44:26;;;;;;;11.43;7.20;;;;;;;;;;5071124;28;20539;-57
2022/05/16 05:46:52;;;;;;;12.23;6.63;;;;;;;;;;5070888;28;20537;-57
2022/05/16 05:49:19;;;;;;;10.07;6.40;;;;;;;;;;5070409;28;20382;-57
2022/05/16 05:51:45;;;;;;;6.70;6.00;;;;;;;;;;5070040;28;20431;-57
2022/05/16 05:54:11;;;;;;;11.10;7.00;;;;;;;;;;5071318;28;20419;-56
2022/05/16 05:56:37;;;;;;;16.93;7.20;;;;;;;;;;5070984;28;20909;-60
2022/05/16 05:59:03;;;;;;;11.20;6.50;;;;;;;;;;5071162;28;20427;-58
2022/05/16 06:01:30;;;;;;;6.77;5.70;;;;;;;;;;5070114;28;20426;-58
2022/05/16 06:03:55;;;;;;;7.00;5.53;;;;;;;;;;5070896;28;20467;-57
2022/05/16 06:06:22;;;;;;;6.00;5.40;;;;;;;;;;5071323;28;20400;-58
2022/05/16 06:08:48;;;;;;;7.20;5.87;;;;;;;;;;5070182;28;20453;-58
2022/05/16 06:11:14;;;;;;;7.73;5.70;;;;;;;;;;5070629;28;20445;-59
2022/05/16 06:13:40;;;;;;;9.90;5.90;;;;;;;;;;5070678;28;20443;-57
2022/05/16 06:16:08;;;;;;;9.03;6.20;;;;;;;;;;5070107;28;20416;-58
2022/05/16 06:18:35;;;;;;;7.03;5.20;;;;;;;;;;5070749;28;20419;-59
2022/05/16 06:21:00;;;;;;;12.90;5.87;;;;;;;;;;5070009;28;20413;-59
2022/05/16 06:23:27;;;;;;;6.53;4.97;;;;;;;;;;5069142;28;20468;-60
2022/05/16 06:25:53;;;;;;;6.00;5.20;;;;;;;;;;5070967;28;20758;-61
2022/05/16 06:28:23;;;;;;;10.40;5.40;;;;;;;;;;5070896;28;20934;-58
2022/05/16 06:30:51;;;;;;;6.83;5.83;;;;;;;;;;5070170;28;20932;-57
2022/05/16 06:33:18;;;;;;;7.70;5.63;;;;;;;;;;5070655;28;20585;-59
2022/05/16 06:35:44;;;;;;;7.13;5.40;;;;;;;;;;5070454;28;20436;-59
2022/05/16 06:38:12;;;;;;;14.83;5.60;;;;;;;;;;5070581;28;20417;-59
2022/05/16 06:40:39;;;;;;;13.33;4.80;;;;;;;;;;5070837;28;20816;-58
2022/05/16 06:43:05;;;;;;;9.13;4.37;;;;;;;;;;5070051;28;20528;-58
2022/05/16 06:45:32;;;;;;;6.27;4.67;;;;;;;;;;5070826;28;20499;-58
2022/05/16 06:47:58;;;;;;;5.67;4.50;;;;;;;;;;5070215;28;20423;-57
2022/05/16 06:50:24;;;;;;;8.83;4.93;;;;;;;;;;5073380;28;20794;-59
2022/05/16 06:52:50;;;;;;;10.30;4.40;;;;;;;;;;5062530;28;20833;-59
2022/05/16 06:55:17;;;;;;;8.70;4.70;;;;;;;;;;5073916;28;20438;-59
2022/05/16 06:57:43;;;;;;;7.90;4.80;;;;;;;;;;5073871;28;20467;-60
2022/05/16 07:00:09;;;;;;;8.47;5.10;;;;;;;;;;5074130;28;20416;-60
2022/05/16 07:02:35;;;;;;;10.53;4.60;;;;;;;;;;5073497;28;20450;-58
2022/05/16 07:05:02;;;;;;;11.60;4.87;;;;;;;;;;5066153;28;20846;-59
2022/05/16 07:07:29;;;;;;;10.63;5.30;;;;;;;;;;5066734;28;20422;-60
2022/05/16 07:09:55;;;;;;;6.20;4.57;;;;;;;;;;5070522;28;20926;-58
2022/05/16 07:12:21;;;;;;;10.07;5.57;;;;;;;;;;5072562;28;20422;-58
2022/05/16 07:14:48;;;;;;;7.50;4.70;;;;;;;;;;5073637;28;20450;-59
2022/05/16 07:17:14;;;;;;;6.20;4.97;;;;;;;;;;5074001;28;20465;-59
2022/05/16 07:19:40;;;;;;;12.60;4.80;;;;;;;;;;5072235;28;20425;-56
2022/05/16 07:22:09;;;;;;;10.90;5.63;;;;;;;;;;5071476;28;20467;-60
2022/05/16 07:24:35;;;;;;;6.03;4.73;;;;;;;;;;5073517;28;20450;-60
2022/05/16 07:29:45;;;;;;;4.30;3.67;;;;;;;;;;5072664;28;20450;-58
2022/05/16 07:32:12;;;;;;;8.17;5.77;;;;;;;;;;5073200;28;20821;-59
2022/05/16 07:34:39;;;;;;;8.90;4.03;;;;;;;;;;5074868;28;20503;-60
2022/05/16 07:37:05;;;;;;;6.87;3.60;;;;;;;;;;5074087;28;20534;-60
2022/05/16 07:39:31;;;;;;;7.23;3.60;;;;;;;;;;5073758;28;20419;-60
2022/05/16 07:41:59;;;;;;;12.50;3.80;;;;;;;;;;5074138;28;20510;-57
2022/05/16 07:44:25;;;;;;;4.23;3.83;;;;;;;;;;5073799;28;20436;-58
2022/05/16 07:46:51;;;;;;;5.03;4.00;;;;;;;;;;5071614;28;20418;-57
2022/05/16 07:49:18;;;;;;;6.23;4.37;;;;;;;;;;5067230;28;20421;-58
2022/05/16 07:51:44;;;;;;;3.70;3.40;;;;;;;;;;5072334;28;20919;-56
2022/05/16 07:54:10;;;;;;;7.13;3.37;;;;;;;;;;5072951;28;20514;-58
2022/05/16 07:56:36;;;;;;;5.13;3.63;;;;;;;;;;5073616;28;20452;-58
2022/05/16 07:59:02;;;;;;;10.80;3.83;;;;;;;;;;5073321;28;20403;-58
2022/05/16 08:01:28;;;;;;;4.13;3.30;;;;;;;;;;5071681;28;20406;-56
2022/05/16 08:03:54;;;;;;;4.77;3.43;;;;;;;;;;5073328;28;20455;-56
2022/05/16 08:06:20;;;;;;;6.23;3.47;;;;;;;;;;5073360;28;20413;-57
2022/05/16 08:11:31;;;;;;;3.90;3.40;;;;;;;;;;5072698;28;20482;-58
2022/05/16 08:13:57;;;;;;;7.37;3.13;;;;;;;;;;5073299;28;20513;-58
2022/05/16 08:16:23;;;;;;;5.83;3.23;;;;;;;;;;5073223;28;20422;-59
2022/05/16 08:18:49;;;;;;;5.63;3.17;;;;;;;;;;5073121;28;20412;-58
2022/05/16 08:21:14;;;;;;;5.37;3.30;;;;;;;;;;5072543;28;20464;-58
2022/05/16 08:23:41;;;;;;;5.80;2.93;;;;;;;;;;5072905;28;20958;-58
2022/05/16 08:26:07;;;;;;;7.53;3.23;;;;;;;;;;5073060;28;20409;-57
2022/05/16 08:28:33;;;;;;;5.63;4.00;;;;;;;;;;5072888;28;20407;-57
2022/05/16 08:31:00;;;;;;;3.73;3.07;;;;;;;;;;5072338;28;20396;-56
2022/05/16 08:33:26;;;;;;;3.40;3.10;;;;;;;;;;5072761;28;20431;-56
2022/05/16 08:41:27;;;;;;;9.03;3.03;;;;;;;;;;5072126;28;20406;-58
2022/05/16 08:44:00;;;;;;;4.30;3.40;;;;;;;;;;5072597;28;20459;-59
2022/05/16 08:46:35;;;;;;;6.10;3.17;;;;;;;;;;5071098;28;20447;-57
2022/05/16 08:49:24;;;;;;;6.03;3.60;;;;;;;;;;5072522;28;20734;-59
2022/05/16 08:51:54;;;;;;;3.40;3.00;;;;;;;;;;5068872;28;20438;-57
2022/05/16 08:54:28;;;;;;;7.57;3.00;;;;;;;;;;5072466;28;20473;-59
2022/05/16 08:56:54;;;;;;;6.27;3.43;;;;;;;;;;5072449;28;20426;-56
2022/05/16 08:59:22;;;;;;;7.77;3.67;;;;;;;;;;5072323;28;20397;-58
2022/05/16 09:01:50;;;;;;;6.93;3.40;;;;;;;;;;5071676;28;20430;-56
2022/05/16 09:04:45;;;;;;;6.47;4.30;;;;;;;;;;5072346;28;20503;-57
2022/05/16 09:07:34;;;;;;;6.60;3.10;;;;;;;;;;5067082;28;20487;-60
2022/05/16 09:10:10;;;;;;;5.60;3.67;;;;;;;;;;5072549;28;20397;-58
2022/05/16 09:12:41;;;;;;;6.27;3.20;;;;;;;;;;5069773;28;20407;-58
2022/05/16 09:15:19;;;;;;;5.90;3.37;;;;;;;;;;5070741;28;20768;-59
2022/05/16 09:17:48;;;;;;;4.43;3.20;;;;;;;;;;5070455;28;20469;-58
2022/05/16 09:20:29;;;;;;;5.07;3.43;;;;;;;;;;5071470;28;20436;-58
2022/05/16 09:23:13;;;;;;;6.60;3.27;;;;;;;;;;5071450;28;20451;-58
2022/05/16 09:25:48;;;;;;;4.50;3.10;;;;;;;;;;5071885;28;20397;-56
2022/05/16 09:31:02;;;;;;;5.83;3.30;;;;;;;;;;5071445;28;20485;-58
2022/05/16 09:33:29;;;;;;;5.53;3.07;;;;;;;;;;5071914;28;20558;-57
2022/05/16 09:35:55;;;;;;;8.00;3.20;;;;;;;;;;5071929;28;20876;-59
2022/05/16 09:38:22;;;;;;;6.57;3.33;;;;;;;;;;5071725;28;20407;-56
2022/05/16 09:41:03;;;;;;;5.77;3.30;;;;;;;;;;5071240;28;20406;-58
2022/05/16 09:43:35;;;;;;;4.03;3.50;;;;;;;;;;5071594;28;20490;-58
2022/05/16 09:46:04;;;;;;;4.23;3.13;;;;;;;;;;5071819;28;20405;-58
2022/05/16 09:48:30;;;;;;;7.97;3.37;;;;;;;;;;5071743;28;20420;-57
2022/05/16 09:51:00;;;;;;;3.40;2.97;;;;;;;;;;5071079;28;20762;-57
2022/05/16 09:53:35;;;;;;;5.13;3.50;;;;;;;;;;5071565;28;21054;-58
2022/05/16 09:56:05;;;;;;;6.70;3.20;;;;;;;;;;5071840;28;20399;-59
2022/05/16 09:58:50;;;;;;;9.33;3.73;;;;;;;;;;5071652;28;20404;-58
2022/05/16 10:01:34;;;;;;;10.90;2.80;;;;;;;;;;5070961;28;20401;-58
2022/05/16 10:04:12;;;;;;;5.00;2.93;;;;;;;;;;5071506;28;20483;-59
2022/05/16 10:06:41;;;;;;;3.50;3.17;;;;;;;;;;5071648;28;20400;-58
2022/05/16 10:09:25;;;;;;;4.17;3.23;;;;;;;;;;5071505;28;20396;-57
2022/05/16 10:11:52;;;;;;;6.57;3.07;;;;;;;;;;5069697;28;20824;-57
2022/05/16 10:14:19;;;;;;;7.33;3.40;;;;;;;;;;5071553;28;20438;-56
2022/05/16 10:16:47;;;;;;;4.00;3.57;;;;;;;;;;5071389;28;20403;-57
2022/05/16 10:19:15;;;;;;;5.50;3.47;;;;;;;;;;5071793;28;20982;-58
2022/05/16 10:21:50;;;;;;;6.60;3.37;;;;;;;;;;5070812;28;20408;-57
2022/05/16 10:24:17;;;;;;;5.43;2.93;;;;;;;;;;5073279;28;20483;-58
2022/05/16 10:26:45;;;;;;;3.43;3.13;;;;;;;;;;5075625;28;20402;-57
2022/05/16 10:29:37;;;;;;;3.33;3.13;;;;;;;;;;5075277;28;20926;-58
2022/05/16 10:35:02;;;;;;;4.70;3.07;;;;;;;;;;5075442;28;20757;-59
2022/05/16 10:37:29;;;;;;;4.13;3.20;;;;;;;;;;5075164;28;20396;-58
2022/05/16 10:40:21;;;;;;;3.20;2.90;;;;;;;;;;5074967;28;20457;-57
2022/05/16 10:43:06;;;;;;;4.20;3.60;;;;;;;;;;5071234;28;20451;-58
2022/05/16 10:45:32;;;;;;;3.20;3.00;;;;;;;;;;5075239;28;20388;-58
2022/05/16 10:48:05;;;;;;;6.07;2.80;;;;;;;;;;5072963;28;20830;-58
2022/05/16 10:50:46;;;;;;;3.17;2.83;;;;;;;;;;5063827;28;20441;-56
2022/05/16 10:53:16;;;;;;;4.30;3.00;;;;;;;;;;5054743;28;20421;-57
2022/05/16 10:56:05;;;;;;;4.00;2.73;;;;;;;;;;5054776;28;20394;-59
2022/05/16 10:58:49;;;;;;;3.50;2.90;;;;;;;;;;5053263;28;20420;-58
2022/05/16 11:01:40;;;;;;;5.27;2.80;;;;;;;;;;5054106;28;20400;-57
2022/05/16 11:04:24;;;;;;;5.77;2.90;;;;;;;;;;5054601;28;20463;-58
2022/05/16 11:06:57;;;;;;;4.13;2.80;;;;;;;;;;5053714;28;20393;-60
2022/05/16 11:09:38;;;;;;;6.40;3.87;;;;;;;;;;5054681;28;20409;-57
2022/05/16 11:12:12;;;;;;;3.93;2.37;;;;;;;;;;5053696;28;20393;-57
2022/05/16 11:14:41;;;;;;;8.10;3.20;;;;;;;;;;5054374;28;20409;-56
2022/05/16 11:17:28;;;;;;;5.10;2.30;;;;;;;;;;5054551;28;20765;-57
2022/05/16 11:20:04;;;;;;;4.00;2.40;;;;;;;;;;5054147;28;20974;-58
2022/05/16 11:22:39;;;;;;;2.50;2.30;;;;;;;;;;5053609;28;20444;-56
2022/05/16 11:25:07;;;;;;;2.63;2.40;;;;;;;;;;5054216;28;20908;-57
2022/05/16 11:27:52;;;;;;;2.70;2.30;;;;;;;;;;5054198;28;20783;-57
2022/05/16 11:30:38;;;;;;;3.03;2.73;;;;;;;;;;5054107;28;20425;-60
2022/05/16 11:33:07;;;;;;;4.07;2.77;;;;;;;;;;5052659;28;20437;-60
2022/05/16 11:35:41;;;;;;;4.00;2.83;;;;;;;;;;5053761;28;20677;-58
2022/05/16 11:38:26;;;;;;;3.97;2.50;;;;;;;;;;5054021;28;20408;-58
2022/05/16 11:40:59;;;;;;;4.20;3.73;;;;;;;;;;5053350;28;20896;-57
2022/05/16 11:43:27;;;;;;;3.50;2.90;;;;;;;;;;5053787;28;20465;-59
2022/05/16 11:46:13;;;;;;;6.37;2.37;;;;;;;;;;5053838;28;20409;-59
2022/05/16 11:48:51;;;;;;;2.90;2.70;;;;;;;;;;5053730;28;20389;-57
2022/05/16 11:51:21;;;;;;;3.50;2.70;;;;;;;;;;5053091;28;20393;-57
2022/05/16 11:53:49;;;;;;;3.57;2.80;;;;;;;;;;5053637;28;20429;-57
2022/05/16 12:02:18;;;;;;;4.70;2.70;;;;;;;;;;5052762;28;20905;-57
2022/05/16 12:04:47;;;;;;;2.80;2.20;;;;;;;;;;5053430;28;20456;-57
2022/05/16 12:07:21;;;;;;;4.00;2.50;;;;;;;;;;5053408;28;20405;-60
2022/05/16 12:09:57;;;;;;;5.10;2.40;;;;;;;;;;5053394;28;20881;-57
2022/05/16 12:12:31;;;;;;;3.80;3.43;;;;;;;;;;5052758;28;21013;-58
2022/05/16 12:15:27;;;;;;;5.33;2.50;;;;;;;;;;5053192;28;20427;-60
2022/05/16 12:17:58;;;;;;;2.70;2.33;;;;;;;;;;5052560;28;20421;-57
2022/05/16 12:20:42;;;;;;;7.70;3.20;;;;;;;;;;5053188;28;20436;-57
2022/05/16 12:23:09;;;;;;;6.67;3.10;;;;;;;;;;5052476;28;20456;-58
2022/05/16 12:25:37;;;;;;;3.73;2.60;;;;;;;;;;5053117;28;20911;-58
2022/05/16 12:28:12;;;;;;;3.43;2.60;;;;;;;;;;5053113;28;20815;-57
2022/05/16 12:30:39;;;;;;;3.23;3.03;;;;;;;;;;5052920;28;20423;-57
2022/05/16 12:33:06;;;;;;;5.37;2.70;;;;;;;;;;5052021;28;20463;-60
2022/05/16 12:35:40;;;;;;;3.33;2.40;;;;;;;;;;5052897;28;20480;-57
2022/05/16 12:38:07;;;;;;;7.03;2.40;;;;;;;;;;5052828;28;20398;-58
2022/05/16 12:40:51;;;;;;;6.13;3.07;;;;;;;;;;5067732;28;20408;-57
2022/05/16 12:43:32;;;;;;;5.53;2.60;;;;;;;;;;5072626;28;20459;-57
2022/05/16 12:46:04;;;;;;;4.17;2.50;;;;;;;;;;5071868;28;20401;-58
2022/05/16 12:48:39;;;;;;;3.00;2.60;;;;;;;;;;5072540;28;20994;-59
2022/05/16 12:51:27;;;;;;;5.30;3.30;;;;;;;;;;5072267;28;20407;-57
2022/05/16 12:54:12;;;;;;;2.60;2.40;;;;;;;;;;5072410;28;20424;-57
2022/05/16 12:56:40;;;;;;;5.93;2.77;;;;;;;;;;5072412;28;20759;-58
2022/05/16 12:59:25;;;;;;;6.07;2.70;;;;;;;;;;5072380;28;20403;-58
2022/05/16 13:01:54;;;;;;;3.17;2.97;;;;;;;;;;5071491;28;20404;-57
2022/05/16 13:04:23;;;;;;;6.10;2.80;;;;;;;;;;5072093;28;20459;-59
2022/05/16 13:07:02;;;;;;;2.53;2.20;;;;;;;;;;5072188;28;20453;-57
2022/05/16 13:09:38;;;;;;;2.80;2.60;;;;;;;;;;5072210;28;20397;-57
2022/05/16 13:12:04;;;;;;;3.70;2.23;;;;;;;;;;5071697;28;20403;-57
2022/05/16 13:14:39;;;;;;;6.00;2.70;;;;;;;;;;5072401;28;20778;-57
2022/05/16 13:17:09;;;;;;;3.67;3.07;;;;;;;;;;5071986;28;20403;-59
2022/05/16 13:19:36;;;;;;;3.53;3.10;;;;;;;;;;5072040;28;20397;-58
2022/05/16 13:22:04;;;;;;;5.70;3.20;;;;;;;;;;5071545;28;20405;-57
2022/05/16 13:24:30;;;;;;;8.37;3.23;;;;;;;;;;5071954;28;20568;-58
2022/05/16 13:29:42;;;;;;;4.97;3.33;;;;;;;;;;5072076;28;20428;-59
2022/05/16 13:32:09;;;;;;;5.43;3.10;;;;;;;;;;5071357;28;20458;-58
2022/05/16 13:34:36;;;;;;;3.73;3.43;;;;;;;;;;5071895;28;20420;-58
2022/05/16 13:37:06;;;;;;;3.73;3.27;;;;;;;;;;5071899;28;20399;-61
2022/05/16 13:39:54;;;;;;;7.20;3.30;;;;;;;;;;5071792;28;20402;-59
2022/05/16 13:42:23;;;;;;;6.40;3.47;;;;;;;;;;5071126;28;20455;-58
2022/05/16 13:44:55;;;;;;;4.53;3.60;;;;;;;;;;5071663;28;20511;-59
2022/05/16 13:47:23;;;;;;;4.23;3.80;;;;;;;;;;5071907;28;20421;-58
2022/05/16 13:49:49;;;;;;;6.13;3.73;;;;;;;;;;5071616;28;20430;-57
2022/05/16 13:52:26;;;;;;;4.60;3.63;;;;;;;;;;5071096;28;20487;-57
2022/05/16 13:54:53;;;;;;;7.73;4.20;;;;;;;;;;5071710;28;20431;-59
2022/05/16 13:57:22;;;;;;;3.97;3.63;;;;;;;;;;5072138;28;20411;-57
2022/05/16 13:59:50;;;;;;;5.70;3.70;;;;;;;;;;5075695;28;20872;-58
2022/05/16 14:02:24;;;;;;;5.23;4.20;;;;;;;;;;5075141;28;20885;-58
2022/05/16 14:04:51;;;;;;;6.27;3.77;;;;;;;;;;5075754;28;20413;-57
2022/05/16 14:07:19;;;;;;;5.33;3.43;;;;;;;;;;5075640;28;20415;-60
2022/05/16 14:09:52;;;;;;;5.00;4.37;;;;;;;;;;5075684;28;20402;-59
2022/05/16 14:12:28;;;;;;;8.90;5.70;;;;;;;;;;5075230;28;20411;-57
2022/05/16 14:14:55;;;;;;;8.00;5.70;;;;;;;;;;5075501;28;20426;-57
2022/05/16 14:17:35;;;;;;;10.07;6.10;;;;;;;;;;5075477;28;20415;-57
2022/05/16 14:20:06;;;;;;;9.70;7.40;;;;;;;;;;5075553;28;20833;-55
2022/05/16 14:22:34;;;;;;;31.17;7.97;;;;;;;;;;5074847;28;20544;-55
2022/05/16 14:25:11;;;;;;;216.10;19.63;;;;;;;;;;5074017;28;20861;-57
2022/05/16 14:27:38;;;;;;;20.30;7.63;;;;;;;;;;5075355;28;20494;-56
2022/05/16 14:30:14;;;;;;;13.63;6.90;;;;;;;;;;5075174;28;20412;-56
2022/05/16 14:32:43;;;;;;;30.87;8.70;;;;;;;;;;5074711;28;20420;-57
2022/05/16 14:35:11;;;;;;;10.60;7.80;;;;;;;;;;5075117;28;20428;-55
2022/05/16 14:37:37;;;;;;;12.17;7.87;;;;;;;;;;5075178;28;20960;-56
2022/05/16 14:40:03;;;;;;;36.57;11.53;;;;;;;;;;5075079;28;20458;-55
2022/05/16 14:42:31;;;;;;;14.83;10.13;;;;;;;;;;5074249;28;20485;-57
2022/05/16 14:45:21;;;;;;;26.47;10.47;;;;;;;;;;5074922;28;20959;-56
2022/05/16 14:47:49;;;;;;;13.23;10.87;;;;;;;;;;5075084;28;20457;-57
2022/05/16 14:50:17;;;;;;;18.60;13.77;;;;;;;;;;5074838;28;20404;-57
2022/05/16 14:53:01;;;;;;;17.37;11.50;;;;;;;;;;5074262;28;20420;-56
2022/05/16 14:55:29;;;;;;;18.43;11.27;;;;;;;;;;5074838;28;20479;-56
2022/05/16 14:57:55;;;;;;;14.47;9.87;;;;;;;;;;5074783;28;21130;-56
2022/05/16 15:05:51;;;;;;;12.30;8.90;;;;;;;;;;5074674;28;20403;-56
2022/05/16 15:08:23;;;;;;;10.50;9.40;;;;;;;;;;5074730;28;20425;-57
2022/05/16 15:10:50;;;;;;;14.23;9.13;;;;;;;;;;5072916;28;20402;-56
2022/05/16 15:13:16;;;;;;;14.50;10.00;;;;;;;;;;5073957;28;20377;-57
2022/05/16 15:15:41;;;;;;;13.87;9.90;;;;;;;;;;5074508;28;20917;-56
2022/05/16 15:18:08;;;;;;;15.80;10.70;;;;;;;;;;5074386;28;20462;-57
2022/05/16 15:20:34;;;;;;;15.93;10.07;;;;;;;;;;5074331;28;20567;-57
2022/05/16 15:23:00;;;;;;;22.60;9.73;;;;;;;;;;5073608;28;20972;-56
2022/05/16 15:25:26;;;;;;;16.10;9.57;;;;;;;;;;5074505;28;20442;-57
2022/05/16 15:27:52;;;;;;;12.80;9.10;;;;;;;;;;5074116;28;20411;-57
2022/05/16 15:30:18;;;;;;;16.80;8.77;;;;;;;;;;5074231;28;20403;-56
2022/05/16 15:32:44;;;;;;;13.93;9.53;;;;;;;;;;5073505;28;20850;-57
2022/05/16 15:35:11;;;;;;;20.47;9.23;;;;;;;;;;5074033;28;20428;-56
2022/05/16 15:37:37;;;;;;;23.70;9.33;;;;;;;;;;5073991;28;20406;-56